Latest Coastal Weather Observations for Green Cape

IDN60701

Issued at 4:35 am EST Tuesday 29 July 2014 (issued every 10 minutes, with the page automatically refreshed every 10 minutes)

About coastal observations | Map of coastal stations | Coastal observations for NSW | Marine services | Other Formats
Station Details ID: 069137 Name: GREEN CAPE AWS Lat: -37.26 Lon: 150.05 Height: 19.4 m
Data from the previous 72 hours. | See also: Recent months at Green Cape
Date/Time
EST
Temp

°C
Wind Pressure Rain
since 9am
mm
Weather Cloud Vis
km
Sea
Height
m
Swell
Dir
 
Speed
knots
Gust
knots
hPa Trend Height
m
Period
s
Dir
29/04:30am 11.4 N 2 3 1011.2 - 0.0 - - - - - - -
29/04:00am 11.6 NW 2 4 1011.6 - 0.0 - - - - - - -
29/03:30am 11.0 N 2 3 1011.8 - 0.0 - - - - - - -
29/03:00am 11.7 W 3 4 1011.9 - 0.0 - - - - - - -
29/02:30am 13.2 NNW 5 6 1012.2 - 0.0 - - - - - - -
29/02:00am 12.9 NW 5 9 1012.4 - 0.0 - - - - - - -
29/01:30am 13.5 NNW 8 12 1012.7 - 0.0 - - - - - - -
29/01:00am 13.7 NNW 11 13 1012.6 - 0.0 - - - - - - -
29/12:30am 13.6 N 11 14 1012.7 - 0.0 - - - - - - -
29/12:00am 13.5 N 11 13 1012.9 - 0.0 - - - - - - -
 
Date/Time
EST
Temp

°C
Wind Pressure Rain
since 9am
mm
Weather Cloud Vis
km
Sea
Height
m
Swell
Dir
 
Speed
knots
Gust
knots
hPa Trend Height
m
Period
s
Dir
28/11:30pm 13.7 N 11 15 1013.2 - 0.0 - - - - - - -
28/11:00pm 13.6 N 12 15 1013.3 - 0.0 - - - - - - -
28/10:30pm 13.6 N 12 14 1013.6 - 0.0 - - - - - - -
28/10:00pm 13.8 N 12 17 1013.8 - 0.0 - - - - - - -
28/09:30pm 13.8 N 9 11 1014.0 - 0.0 - - - - - - -
28/09:00pm 13.9 N 12 15 1014.1 - 0.0 - - - - - - -
28/08:30pm 13.9 N 10 12 1014.2 - 0.0 - - - - - - -
28/08:00pm 14.1 N 9 11 1014.2 - 0.0 - - - - - - -
28/07:30pm 14.4 N 10 13 1014.2 - 0.0 - - - - - - -
28/07:00pm 15.2 N 13 17 1014.3 - 0.0 - - - - - - -
28/06:30pm 15.5 N 13 18 1014.3 - 0.0 - - - - - - -
28/06:00pm 15.6 N 14 19 1014.0 - 0.0 - - - - - - -
28/05:30pm 15.5 N 12 15 1014.1 - 0.0 - - - - - - -
28/05:00pm 15.8 N 14 17 1014.1 - 0.0 - - - - - - -
28/04:30pm 16.3 N 12 15 1014.0 - 0.0 - - - - - - -
28/04:00pm 16.2 N 15 18 1014.1 - 0.0 - - - - - - -
28/03:30pm 16.4 NNE 14 16 1014.2 - 0.0 - - - - - - -
28/03:00pm 16.6 N 16 18 1014.3 - 0.0 - - - - - - -
28/02:30pm 16.8 N 15 17 1014.4 - 0.0 - - - - - - -
28/02:00pm 17.5 N 12 16 1014.5 - 0.0 - - - - - - -
28/01:30pm 17.7 N 11 12 1014.7 - 0.0 - - - - - - -
28/01:00pm 17.3 N 11 13 1015.2 - 0.0 - - - - - - -
28/12:30pm 17.0 N 10 12 1015.8 - 0.0 - - - - - - -
28/12:00pm 19.0 N 5 10 1016.2 - 0.0 - - - - - - -
28/11:30am 18.1 ENE 2 5 1016.7 - 0.0 - - - - - - -
28/11:00am 15.5 W 6 7 1017.2 - 0.0 - - - - - - -
28/10:30am 14.5 W 5 7 1017.7 - 0.0 - - - - - - -
28/10:00am 13.4 W 4 5 1018.0 - 0.0 - - - - - - -
28/09:30am 12.8 W 3 5 1018.1 - 0.0 - - - - - - -
28/09:00am 12.9 WNW 2 4 1018.2 - 0.0 - - - - - - -
28/08:30am 12.5 CALM 0 1 1018.3 - 0.0 - - - - - - -
28/08:00am 11.8 NW 3 4 1018.5 - 0.0 - - - - - - -
28/07:30am 10.7 N 4 8 1018.6 - 0.0 - - - - - - -
28/07:00am 9.9 W 8 9 1018.5 - 0.0 - - - - - - -
28/06:30am 10.5 W 12 14 1018.4 - 0.0 - - - - - - -
28/06:00am 10.7 W 12 14 1018.1 - 0.0 - - - - - - -
28/05:30am 11.0 W 13 15 1018.0 - 0.0 - - - - - - -
28/05:00am 10.6 W 11 14 1018.2 - 0.0 - - - - - - -
28/04:30am 10.5 W 11 12 1018.4 - 0.0 - - - - - - -
28/04:00am 10.0 W 8 10 1018.5 - 0.0 - - - - - - -
28/03:30am 10.3 WNW 6 8 1018.6 - 0.0 - - - - - - -
28/03:00am 11.2 WNW 5 8 1018.4 - 0.0 - - - - - - -
28/02:30am 12.4 NNW 6 7 1018.8 - 0.0 - - - - - - -
28/02:00am 12.7 NNW 6 7 1019.0 - 0.0 - - - - - - -
28/01:30am 11.2 W 5 6 1019.3 - 0.0 - - - - - - -
28/01:00am 11.1 W 8 10 1019.5 - 0.0 - - - - - - -
28/12:30am 11.2 W 8 10 1019.6 - 0.0 - - - - - - -
28/12:00am 12.2 W 4 5 1019.7 - 0.0 - - - - - - -
 
Date/Time
EST
Temp

°C
Wind Pressure Rain
since 9am
mm
Weather Cloud Vis
km
Sea
Height
m
Swell
Dir
 
Speed
knots
Gust
knots
hPa Trend Height
m
Period
s
Dir
27/11:30pm 12.2 W 3 4 1019.8 - 0.0 - - - - - - -
27/11:00pm 11.9 W 4 4 1020.3 - 0.0 - - - - - - -
27/10:30pm 11.9 W 7 8 1020.7 - 0.0 - - - - - - -
27/10:00pm 12.2 W 8 9 1021.2 - 0.0 - - - - - - -
27/09:30pm 12.2 W 8 8 1021.1 - 0.0 - - - - - - -
27/09:00pm 12.2 WNW 6 7 1021.2 - 0.0 - - - - - - -
27/08:30pm 12.6 W 9 10 1021.3 - 0.0 - - - - - - -
27/08:00pm 13.6 WSW 6 8 1020.7 - 0.0 - - - - - - -
27/07:30pm 13.8 SSW 7 8 1020.7 - 0.0 - - - - - - -
27/07:00pm 14.1 S 8 10 1020.4 - 0.0 - - - - - - -
27/06:30pm 14.3 S 6 8 1020.6 - 0.0 - - - - - - -
27/06:00pm 14.6 SSE 8 9 1020.0 - 0.0 - - - - - - -
27/05:30pm 14.7 S 7 8 1020.2 - 0.0 - - - - - - -
27/05:00pm 15.0 S 6 8 1019.8 - 0.0 - - - - - - -
27/04:30pm 15.2 SSW 10 12 1020.0 - 0.0 - - - - - - -
27/04:00pm 15.7 SW 13 15 1020.2 - 0.0 - - - - - - -
27/03:30pm 15.9 SW 12 15 1020.1 - 0.0 - - - - - - -
27/03:00pm 16.1 WSW 14 16 1020.3 - 0.0 - - - - - - -
27/02:30pm 16.2 SW 13 16 1020.4 - 0.0 - - - - - - -
27/02:00pm 16.1 WSW 17 21 1020.4 - 0.0 - - - - - - -
27/01:30pm 15.6 WSW 16 20 1020.6 - 0.0 - - - - - - -
27/01:00pm 16.2 WSW 18 22 1020.9 - 0.0 - - - - - - -
27/12:30pm 16.0 WSW 18 22 1021.3 - 0.0 - - - - - - -
27/12:00pm 15.7 WSW 18 21 1021.8 - 0.0 - - - - - - -
27/11:30am 15.2 WSW 16 20 1022.2 - 0.0 - - - - - - -
27/11:00am 15.0 WSW 18 23 1022.6 - 0.0 - - - - - - -
27/10:30am 14.7 WSW 17 22 1023.0 - 0.0 - - - - - - -
27/10:00am 14.5 WSW 17 19 1023.2 - 0.0 - - - - - - -
27/09:30am 13.9 WSW 21 27 1023.1 - 0.0 - - - - - - -
27/09:00am 13.7 WSW 22 29 1023.1 - 0.0 - - - - - - -
27/08:30am 13.4 W 26 30 1022.6 - 0.0 - - - - - - -
27/08:00am 13.2 WSW 22 26 1022.6 - 0.0 - - - - - - -
27/07:30am 13.0 WSW 18 22 1022.5 - 0.0 - - - - - - -
27/07:00am 13.1 WSW 20 24 1022.2 - 0.0 - - - - - - -
27/06:30am 13.3 WSW 20 24 1021.9 - 0.0 - - - - - - -
27/06:00am 13.2 WSW 23 28 1021.6 - 0.0 - - - - - - -
27/05:30am 13.3 WSW 22 26 1021.2 - 0.0 - - - - - - -
27/05:00am 13.4 WSW 20 26 1021.2 - 0.0 - - - - - - -
27/04:30am 13.2 WSW 20 25 1021.2 - 0.0 - - - - - - -
27/04:00am 13.2 WSW 19 25 1021.1 - 0.0 - - - - - - -
27/03:30am 13.2 WSW 21 25 1021.1 - 0.0 - - - - - - -
27/03:00am 13.3 WSW 21 26 1021.0 - 0.0 - - - - - - -
27/02:53am 13.2 WSW 16 25 1021.1 - 0.0 - - - - - - -
27/02:30am 12.7 W 11 14 1021.3 - 0.0 - - - - - - -
27/02:00am 12.6 W 16 20 1021.4 - 0.0 - - - - - - -
27/01:30am 12.6 W 21 27 1020.9 - 0.0 - - - - - - -
27/01:00am 12.8 W 21 27 1021.2 - 0.0 - - - - - - -
27/12:30am 13.1 W 20 26 1021.5 - 0.0 - - - - - - -
27/12:00am 13.1 W 19 33 1021.4 - 0.0 - - - - - - -
 
Date/Time
EST
Temp

°C
Wind Pressure Rain
since 9am
mm
Weather Cloud Vis
km
Sea
Height
m
Swell
Dir
 
Speed
knots
Gust
knots
hPa Trend Height
m
Period
s
Dir
26/11:56pm 12.7 W 16 25 1021.5 - 0.0 - - - - - - -
26/11:30pm 11.9 W 10 12 1021.9 - 0.0 - - - - - - -
26/11:00pm 11.9 W 11 13 1022.1 - 0.0 - - - - - - -
26/10:30pm 11.7 W 10 11 1022.2 - 0.0 - - - - - - -
26/10:00pm 11.7 W 10 11 1022.2 - 0.0 - - - - - - -
26/09:30pm 12.3 W 10 12 1022.1 - 0.0 - - - - - - -
26/09:00pm 12.5 W 8 9 1022.0 - 0.0 - - - - - - -
26/08:30pm 12.7 W 8 9 1022.0 - 0.0 - - - - - - -
26/08:00pm 13.0 W 6 7 1021.7 - 0.0 - - - - - - -
26/07:30pm 12.9 W 5 6 1021.8 - 0.0 - - - - - - -
26/07:00pm 13.5 W 5 6 1021.7 - 0.0 - - - - - - -
26/06:30pm 14.2 WSW 7 8 1021.5 - 0.0 - - - - - - -
26/06:00pm 14.3 SSW 11 12 1021.1 - 0.0 - - - - - - -
26/05:30pm 14.4 SSW 14 16 1020.9 - 0.0 - - - - - - -
26/05:00pm 14.3 SSW 18 21 1020.5 - 0.0 - - - - - - -
26/04:30pm 14.9 S 20 23 1020.1 - 0.0 - - - - - - -
26/04:00pm 15.3 S 15 16 1020.1 - 0.0 - - - - - - -
26/03:30pm 16.1 S 13 14 1020.0 - 0.0 - - - - - - -
26/03:00pm 17.4 S 11 12 1020.0 - 0.0 - - - - - - -
26/02:30pm 17.3 SSE 10 11 1019.9 - 0.0 - - - - - - -
26/02:00pm 18.7 S 8 10 1019.9 - 0.0 - - - - - - -
26/01:30pm 19.3 SSE 5 6 1020.1 - 0.0 - - - - - - -
26/01:00pm 18.5 S 4 5 1020.4 - 0.0 - - - - - - -
26/12:30pm 17.3 WSW 3 4 1020.8 - 0.0 - - - - - - -
26/12:00pm 17.1 W 6 7 1021.3 - 0.0 - - - - - - -
26/11:30am 16.4 W 9 10 1021.6 - 0.0 - - - - - - -
26/11:00am 15.6 W 9 10 1021.8 - 0.0 - - - - - - -
26/10:30am 14.5 W 9 10 1022.2 - 0.0 - - - - - - -
26/10:00am 13.4 W 11 12 1022.2 - 0.0 - - - - - - -
26/09:30am 12.7 W 10 11 1022.2 - 0.0 - - - - - - -
26/09:00am 12.1 W 10 12 1022.0 - 0.0 - - - - - - -
26/08:30am 11.2 W 9 11 1021.8 - 0.0 - - - - - - -
26/08:00am 10.8 W 8 10 1021.6 - 0.0 - - - - - - -
26/07:30am 10.6 WNW 9 11 1021.3 - 0.0 - - - - - - -
26/07:00am 10.7 W 10 12 1021.2 - 0.0 - - - - - - -
26/06:30am 10.2 W 10 11 1021.0 - 0.0 - - - - - - -
26/06:00am 10.4 W 9 11 1020.8 - 0.0 - - - - - - -
26/05:30am 11.0 W 7 8 1020.7 - 0.0 - - - - - - -
26/05:00am 10.4 W 9 10 1020.4 - 0.0 - - - - - - -

Other Formats:

Comma delimited format used in spreadsheet applications
http://www.bom.gov.au/fwo/IDN60701/IDN60701.94934.axf

JavaScript Object Notation format (JSON) in row-major order
http://www.bom.gov.au/fwo/IDN60701/IDN60701.94934.json